Terminal Aerodrome Forecast
Issued by NWS Grand Forks, ND

Home | Current Version | Previous Version | Graphics & Text | Print | Product List | Glossary On
Versions: 1 2 3 4 5 6 7 8 9 10 11 12 13 14 15 16 17 18 19 20 21
642
FTUS43 KFGF 230533
TAFFAR
TAF
KFAR 230533Z 2306/2406 07004KT 1SM -SN OVC015
     FM230800 01004KT 3/4SM -SN OVC015
     FM231000 35005KT 2SM -SN OVC015
      TEMPO 2310/2313 1SM -SN OVC007
     FM231300 34006KT P6SM OVC015
     FM231500 32008KT P6SM OVC040
     FM231900 30009KT P6SM SCT120
     FM240100 22007KT P6SM SCT250=

USA.gov is the U.S. government's official web portal to all federal, state and local government web resources and services.